Silver Creek Village, TX

4:01 AM CST on December 07, 2016 (GMT -0600)
South Council Creek | | Change Station

Elev 1052 ft 30.83 °N, 98.36 °W | Updated 7 minutes ago

Mostly Cloudy
Mostly Cloudy
--
Feels Like --
N
-
Wind Variable Wind from North

Today
High -- | Low -- °F
--% Chance of Precip.
Yesterday
High -- | Low -- °F
Precip. -- in
Pressure 30.06 in
Visibility 7.0 miles
Clouds Scattered Clouds 200 ft
Mostly Cloudy 1000 ft
Dew Point Not available.
Humidity Not available.
Rainfall 0.00 in
Snow Depth Not available.
7:18 AM 5:31 PM
Waxing Crescent, 51% visible
METAR KBMQ 070953Z AUTO 00000KT 7SM SCT002 BKN010 03/02 A3006 RMK AO2 SLP177 T00280017
Pressure 30.06 in
Visibility 7.0 miles
Clouds Scattered Clouds 200 ft
Mostly Cloudy 1000 ft
Dew Point Not available.
Humidity Not available.
Rainfall 0.00 in
Snow Depth Not available.
7:18 AM 5:31 PM
Waxing Crescent, 51% visible
METAR KBMQ 070953Z AUTO 00000KT 7SM SCT002 BKN010 03/02 A3006 RMK AO2 SLP177 T00280017

10-Day Weather Forecast

Almanac

Astronomy

Dec. 07, 2016 Rise Set
Actual Time
Civil Twilight
Nautical Twilight
Astronomical Twilight
Moon
Length of Visible Light
Length of Day
Tomorrow will be .
, % of the Moon is Illuminated

Today's Extremes

State Highs State Lows

Community

WunderPhotos

Upload Photos

1,956,111 photos uploaded!

WunderBlog® & News

Nearby

Air Quality

  Air Quality AQ Index Pollutant
Not available.

Snow Depth

Station Depth Elevation

Earthquake Activity

City Distance Mag. Time & Date
Minimum magnitude displayed is 2.5.

Coastal Water Temperatures

Place Temperature

Stations

Nearby Weather Stations

Station Location Temp. Windchill Dew Point Humidity Wind Precip. Elev Updated Type
                   

Watches & Warnings

There are currently no watches in effect.